createdAt,value
2019-05-26T00:04:45.048Z,11.10
2019-05-26T00:14:58.683Z,11.20
2019-05-26T00:24:35.890Z,10.60
2019-05-26T00:28:38.475Z,10.70
2019-05-26T00:33:36.874Z,10.50
2019-05-26T00:43:50.271Z,10.80
2019-05-26T00:47:52.986Z,10.30
2019-05-26T00:52:49.917Z,10.20
2019-05-26T01:03:03.379Z,10.40
2019-05-26T01:13:15.947Z,10.30
2019-05-26T01:23:29.003Z,10.00
2019-05-26T01:27:31.588Z,10.00
2019-05-26T01:32:29.524Z,9.80
2019-05-26T01:42:43.283Z,10.10
2019-05-26T01:47:52.984Z,9.80
2019-05-26T01:52:52.334Z,9.70
2019-05-26T02:03:06.341Z,9.80
2019-05-26T02:08:04.039Z,9.50
2019-05-26T02:13:01.694Z,9.50
2019-05-26T02:23:17.124Z,9.70
2019-05-26T02:27:19.930Z,9.70
2019-05-26T02:32:17.286Z,10.00
2019-05-26T02:42:30.823Z,10.20
2019-05-26T02:52:45.021Z,9.70
2019-05-26T02:57:42.889Z,9.80
2019-05-26T03:07:56.755Z,10.30
2019-05-26T03:18:11.343Z,10.40
2019-05-26T03:27:30.216Z,10.20
2019-05-26T03:37:43.697Z,10.40
2019-05-26T03:47:57.765Z,10.40
2019-05-26T03:58:11.690Z,10.20
2019-05-26T04:08:26.019Z,10.20
2019-05-26T04:23:43.196Z,10.30
2019-05-26T04:27:45.839Z,10.40
2019-05-26T04:37:58.969Z,10.50
2019-05-26T04:53:16.706Z,10.80
2019-05-26T05:03:31.085Z,10.70
2019-05-26T05:13:44.754Z,11.00
2019-05-26T05:23:58.581Z,11.10
2019-05-26T05:28:19.769Z,11.30
2019-05-26T05:53:45.980Z,11.20
2019-05-26T06:03:59.561Z,11.60
2019-05-26T06:33:08.023Z,12.30
2019-05-26T06:37:47.135Z,12.30
2019-05-26T06:51:56.545Z,12.50
2019-05-26T06:55:59.358Z,12.90
2019-05-26T07:00:01.889Z,13.00
2019-05-26T07:04:04.672Z,13.10
2019-05-26T07:08:07.395Z,13.20
2019-05-26T07:12:10.085Z,13.30
2019-05-26T07:16:12.684Z,13.40
2019-05-26T07:20:15.717Z,13.60
2019-05-26T07:24:21.461Z,13.80
2019-05-26T07:28:24.072Z,14.00
2019-05-26T07:32:27.804Z,14.20
2019-05-26T07:36:30.479Z,14.40
2019-05-26T07:40:33.108Z,14.50
2019-05-26T07:44:35.763Z,14.60
2019-05-26T07:48:38.335Z,14.50
2019-05-26T07:52:43.910Z,14.60
2019-05-26T07:56:46.466Z,14.60
2019-05-26T08:00:49.096Z,14.70
2019-05-26T08:04:51.665Z,14.60
2019-05-26T08:08:54.254Z,14.70
2019-05-26T08:12:56.803Z,14.70
2019-05-26T08:16:59.676Z,14.70
2019-05-26T08:21:05.138Z,14.70
2019-05-26T08:25:08.320Z,14.70
2019-05-26T08:29:10.880Z,14.80
2019-05-26T08:33:13.438Z,14.80
2019-05-26T08:37:16.052Z,14.90
2019-05-26T08:41:18.625Z,15.00
2019-05-26T08:45:22.930Z,14.90
2019-05-26T08:49:25.752Z,14.90
2019-05-26T08:53:28.294Z,15.00
2019-05-26T08:57:30.809Z,14.90
2019-05-26T09:01:33.424Z,15.00
2019-05-26T09:05:35.994Z,14.90
2019-05-26T09:09:39.535Z,15.00
2019-05-26T09:13:43.915Z,15.10
2019-05-26T09:17:47.156Z,14.90
2019-05-26T09:21:52.748Z,15.10
2019-05-26T09:25:55.396Z,15.10
2019-05-26T09:29:58.047Z,15.00
2019-05-26T09:34:00.743Z,15.00
2019-05-26T09:38:03.596Z,15.00
2019-05-26T09:42:06.160Z,15.10
2019-05-26T09:46:08.731Z,15.10
2019-05-26T09:50:11.789Z,15.20
2019-05-26T09:54:14.372Z,15.30
2019-05-26T09:58:16.924Z,15.30
2019-05-26T10:02:19.494Z,15.30
2019-05-26T10:06:22.039Z,15.30
2019-05-26T10:10:24.580Z,15.30
2019-05-26T10:14:27.447Z,15.30
2019-05-26T10:18:30.020Z,15.30
2019-05-26T10:22:32.557Z,15.30
2019-05-26T10:26:39.301Z,15.30
2019-05-26T10:30:39.556Z,15.20
2019-05-26T10:34:42.114Z,15.00
2019-05-26T10:38:44.713Z,15.00
2019-05-26T10:42:47.485Z,14.70
2019-05-26T10:46:50.096Z,14.60
2019-05-26T10:50:52.877Z,14.70
2019-05-26T10:54:55.442Z,14.80
2019-05-26T10:59:07.383Z,15.00
2019-05-26T11:03:10.039Z,15.10
2019-05-26T11:07:12.623Z,15.30
2019-05-26T11:11:15.211Z,15.20
2019-05-26T11:15:18.718Z,15.30
2019-05-26T11:19:21.488Z,15.20
2019-05-26T11:23:24.062Z,15.20
2019-05-26T11:27:29.678Z,15.40
2019-05-26T11:31:32.281Z,15.50
2019-05-26T11:35:34.844Z,15.50
2019-05-26T11:39:37.559Z,15.50
2019-05-26T11:43:40.148Z,15.50
2019-05-26T11:47:48.581Z,15.70
2019-05-26T11:51:51.530Z,16.00
2019-05-26T11:55:54.065Z,16.10
2019-05-26T11:59:56.653Z,16.20
2019-05-26T12:03:59.219Z,16.40
2019-05-26T12:08:01.805Z,16.50
2019-05-26T12:12:04.491Z,16.50
2019-05-26T12:16:07.043Z,16.60
2019-05-26T12:20:09.943Z,16.70
2019-05-26T12:24:12.486Z,16.80
2019-05-26T12:28:15.022Z,16.90
2019-05-26T12:32:17.615Z,17.00
2019-05-26T12:36:23.259Z,17.10
2019-05-26T12:40:25.813Z,17.30
2019-05-26T12:44:28.368Z,17.30
2019-05-26T12:48:30.921Z,17.50
2019-05-26T12:52:33.534Z,17.60
2019-05-26T12:56:36.082Z,17.70
2019-05-26T13:00:48.985Z,17.90
2019-05-26T13:04:46.043Z,18.10
2019-05-26T13:08:48.700Z,18.10
2019-05-26T13:12:51.313Z,18.20
2019-05-26T13:16:53.902Z,18.60
2019-05-26T13:20:59.253Z,18.80
2019-05-26T13:25:01.837Z,18.80
2019-05-26T13:29:04.395Z,18.80
2019-05-26T13:33:06.982Z,18.80
2019-05-26T13:37:09.786Z,18.90
2019-05-26T13:41:12.291Z,18.70
2019-05-26T13:45:22.474Z,18.60
2019-05-26T13:49:20.104Z,18.60
2019-05-26T13:53:22.724Z,18.60
2019-05-26T13:57:25.278Z,18.70
2019-05-26T14:01:27.861Z,18.70
2019-05-26T14:05:30.755Z,18.80
2019-05-26T14:09:33.340Z,18.80
2019-05-26T14:13:35.903Z,18.90
2019-05-26T14:17:38.699Z,18.90
2019-05-26T14:21:41.247Z,18.90
2019-05-26T14:25:44.054Z,18.80
2019-05-26T14:29:46.850Z,18.90
2019-05-26T14:33:49.403Z,18.90
2019-05-26T14:37:52.309Z,19.00
2019-05-26T14:41:54.896Z,19.00
2019-05-26T14:45:57.667Z,19.10
2019-05-26T14:50:00.186Z,19.10
2019-05-26T14:54:02.800Z,19.00
2019-05-26T14:58:15.144Z,19.00
2019-05-26T15:02:12.816Z,19.00
2019-05-26T15:06:15.421Z,19.00
2019-05-26T15:10:22.742Z,19.10
2019-05-26T15:14:25.370Z,19.10
2019-05-26T15:18:27.932Z,19.20
2019-05-26T15:22:31.588Z,19.10
2019-05-26T15:26:34.156Z,19.00
2019-05-26T15:30:36.682Z,19.00
2019-05-26T15:34:39.935Z,19.00
2019-05-26T15:38:43.501Z,19.00
2019-05-26T15:42:46.171Z,18.90
2019-05-26T15:46:48.790Z,19.00
2019-05-26T15:50:54.354Z,19.00
2019-05-26T15:54:57.203Z,19.00
2019-05-26T15:58:59.764Z,19.10
2019-05-26T16:03:02.307Z,19.10
2019-05-26T16:07:07.936Z,19.10
2019-05-26T16:11:10.523Z,19.10
2019-05-26T16:15:13.492Z,19.00
2019-05-26T16:19:16.141Z,19.00
2019-05-26T16:23:18.774Z,19.00
2019-05-26T16:27:21.322Z,19.00
2019-05-26T16:31:26.955Z,19.00
2019-05-26T16:35:29.492Z,19.00
2019-05-26T16:39:36.897Z,19.00
2019-05-26T16:43:36.534Z,18.90
2019-05-26T16:47:39.095Z,18.90
2019-05-26T16:51:41.694Z,18.90
2019-05-26T16:55:45.302Z,18.90
2019-05-26T16:59:47.878Z,18.80
2019-05-26T17:03:50.430Z,18.80
2019-05-26T17:07:56.151Z,18.80
2019-05-26T17:12:07.821Z,19.10
2019-05-26T17:16:10.521Z,19.20
2019-05-26T17:20:13.339Z,19.20
2019-05-26T17:24:22.193Z,19.10
2019-05-26T17:28:24.753Z,19.10
2019-05-26T17:32:27.337Z,19.00
2019-05-26T17:36:29.970Z,18.90
2019-05-26T17:40:35.555Z,18.90
2019-05-26T17:44:38.144Z,18.70
2019-05-26T17:48:40.724Z,18.50
2019-05-26T17:52:43.231Z,18.10
2019-05-26T17:56:45.795Z,17.60
2019-05-26T18:00:48.682Z,17.40
2019-05-26T18:05:00.487Z,17.10
2019-05-26T18:09:05.133Z,17.00
2019-05-26T18:13:07.761Z,16.70
2019-05-26T18:17:10.305Z,16.50
2019-05-26T18:21:12.879Z,16.30
2019-05-26T18:25:34.867Z,16.20
2019-05-26T18:29:37.836Z,16.10
2019-05-26T18:33:40.503Z,16.00
2019-05-26T18:37:43.162Z,16.00
2019-05-26T18:41:45.738Z,15.80
2019-05-26T18:45:52.158Z,15.90
2019-05-26T18:49:58.139Z,15.90
2019-05-26T18:54:00.659Z,15.80
2019-05-26T18:58:06.291Z,15.70
2019-05-26T19:02:08.906Z,15.70
2019-05-26T19:06:17.556Z,15.50
2019-05-26T19:10:20.201Z,15.60
2019-05-26T19:14:22.758Z,15.50
2019-05-26T19:18:25.367Z,15.50
2019-05-26T19:22:27.931Z,15.40
2019-05-26T19:26:30.592Z,15.30
2019-05-26T19:30:33.288Z,15.30
2019-05-26T19:34:35.819Z,15.20
2019-05-26T19:38:38.425Z,15.20
2019-05-26T19:42:40.968Z,15.10
2019-05-26T19:46:43.596Z,15.10
2019-05-26T19:50:47.242Z,15.10
2019-05-26T19:54:55.863Z,15.10
2019-05-26T19:58:58.480Z,15.20
2019-05-26T20:03:01.085Z,15.20
2019-05-26T20:07:04.886Z,15.20
2019-05-26T20:11:07.501Z,15.20
2019-05-26T20:15:12.141Z,15.30
2019-05-26T20:19:14.817Z,15.20
2019-05-26T20:23:17.493Z,15.30
2019-05-26T20:27:20.286Z,15.20
2019-05-26T20:31:22.866Z,15.40
2019-05-26T20:35:25.575Z,15.30
2019-05-26T20:39:28.140Z,15.40
2019-05-26T20:43:36.865Z,15.40
2019-05-26T20:47:39.419Z,15.50
2019-05-26T20:51:45.162Z,15.50
2019-05-26T20:55:47.732Z,15.50
2019-05-26T20:59:50.315Z,15.60
2019-05-26T21:03:52.885Z,15.50
2019-05-26T21:07:55.505Z,15.50
2019-05-26T21:11:58.104Z,15.50
2019-05-26T21:16:00.697Z,15.50
2019-05-26T21:20:04.193Z,15.50
2019-05-26T21:24:07.069Z,15.60
2019-05-26T21:28:09.632Z,15.60
2019-05-26T21:32:12.186Z,15.50
2019-05-26T21:36:14.763Z,15.50
2019-05-26T21:40:17.451Z,15.50
2019-05-26T21:44:23.053Z,15.50
2019-05-26T21:48:25.640Z,15.50
2019-05-26T21:52:31.171Z,15.50
2019-05-26T21:56:33.712Z,15.50
2019-05-26T22:00:40.796Z,15.50
2019-05-26T22:04:46.353Z,15.50
2019-05-26T22:08:51.934Z,15.40
2019-05-26T22:12:57.501Z,15.40
2019-05-26T22:17:00.057Z,15.40
2019-05-26T22:21:02.572Z,15.40
2019-05-26T22:25:05.197Z,15.30
2019-05-26T22:29:07.786Z,15.40
2019-05-26T22:33:10.336Z,15.40
2019-05-26T22:37:12.854Z,15.40
2019-05-26T22:41:15.465Z,15.40
2019-05-26T22:45:18.012Z,15.30
2019-05-26T22:49:20.597Z,15.30
2019-05-26T22:53:23.175Z,15.20
2019-05-26T22:57:25.820Z,15.20
2019-05-26T23:01:28.414Z,15.20
2019-05-26T23:05:31.021Z,15.20
2019-05-26T23:09:33.571Z,15.10
2019-05-26T23:13:41.998Z,15.10
2019-05-26T23:17:44.598Z,15.00
2019-05-26T23:21:47.145Z,15.00
2019-05-26T23:25:49.706Z,15.00
2019-05-26T23:29:52.360Z,15.00
2019-05-26T23:33:54.897Z,14.90
2019-05-26T23:37:57.470Z,14.90
2019-05-26T23:42:00.076Z,14.90
2019-05-26T23:46:02.651Z,14.90
2019-05-26T23:50:08.199Z,14.90
2019-05-26T23:54:10.776Z,14.80
2019-05-26T23:58:13.369Z,14.80
